Taiki Maru — JI3464 — position and weather

sailwx.info

Track history (hours):
 
Tides and Currents Weather Stations Pressure Air Temp Water Temp Dewpoint Dewpoint Depression Visibility Wind Speed Wind Dir Waves Ship Positions

Taiki Maru

Last reported at 2017-Feb-28 18:30 UTC. Time now 2017-Mar-01 20:15 UTC.
Position N 34°60' E 139°31'.

Length 93 m; draft 7.2 m.

Type: Cargo ship. MMSI: 431300622.

Date/timePositionNaut miles runAvg speedWind from/ knotsBaromVisibWave heightAir tempDewpointWater temp
2017-Feb-28 18:30N 34°60' E 139°31'1314.2
2017-Feb-28 17:33N 35°08' E 139°44'1212.2
2017-Feb-28 16:34N 35°20' E 139°42'9 8.6
2017-Feb-28 15:31N 35°29' E 139°40'0 0.0
2017-Feb-28 14:31N 35°29' E 139°40'0 0.0
2017-Feb-28 13:31N 35°29' E 139°40'0 0.0
2017-Feb-28 12:31N 35°29' E 139°40'0 0.0
2017-Feb-28 11:31N 35°29' E 139°40'0 0.0
2017-Feb-28 10:31N 35°29' E 139°40'0 0.0
2017-Feb-28 09:31N 35°29' E 139°40'0 0.0
2017-Feb-28 08:31N 35°29' E 139°40'0 0.0
2017-Feb-28 07:31N 35°29' E 139°40'0 0.0
2017-Feb-28 06:25N 35°29' E 139°40'0 0.0
2017-Feb-28 05:33N 35°29' E 139°40'2 2.0
2017-Feb-28 04:33N 35°27' E 139°41'1 1.3
2017-Feb-28 03:32N 35°26' E 139°42'0 0.0
2017-Feb-28 02:32N 35°26' E 139°42'0 0.0
2017-Feb-28 01:29N 35°26' E 139°42'0 0.0
2017-Feb-28 00:29N 35°26' E 139°42'0 0.0
2017-Feb-27 23:26N 35°26' E 139°42'0 0.0
2017-Feb-27 22:32N 35°26' E 139°42'4 4.4
2017-Feb-27 21:33N 35°21' E 139°43'1111.4
2017-Feb-27 20:33N 35°10' E 139°46'1111.2
2017-Feb-27 19:33N 35°01' E 139°38'239 9.9
2017-Feb-26 19:32N 34°04' E 134°57'2713.5
2017-Feb-26 17:33N 34°30' E 135°02'1110.6
2017-Feb-26 16:33N 34°37' E 134°52'3 0.2
2017-Feb-25 21:23N 34°39' E 134°49'1314.8
2017-Feb-25 20:32N 34°36' E 135°04'1313.4
2017-Feb-25 19:33N 34°23' E 135°02'1312.8
2017-Feb-25 18:33N 34°10' E 134°59'  
2017-Feb-23 05:05N 34°04' E 135°02'612.1
2017-Feb-23 04:34N 34°11' E 135°04'4 4.2
2017-Feb-23 03:32N 34°15' E 135°05'0 0.0
2017-Feb-23 02:32N 34°15' E 135°05'1 0.5
2017-Feb-23 01:33N 34°14' E 135°06'2 1.4
2017-Feb-23 00:25N 34°14' E 135°08'0 0.0
2017-Feb-22 23:34N 34°14' E 135°08'0 0.0
2017-Feb-22 22:33N 34°14' E 135°08'0 0.0
2017-Feb-22 21:34N 34°14' E 135°08'0 0.0
2017-Feb-22 20:31N 34°14' E 135°08'0 0.0
2017-Feb-22 19:30N 34°14' E 135°08'0 0.0
2017-Feb-22 18:31N 34°14' E 135°08'0 0.0
2017-Feb-22 17:31N 34°14' E 135°08'0 0.1
2017-Feb-22 16:34N 34°14' E 135°08'0 0.0
2017-Feb-22 15:30N 34°14' E 135°08'0 0.0
2017-Feb-22 14:31N 34°14' E 135°08'0 0.0
2017-Feb-22 13:30N 34°14' E 135°08'0 0.0
2017-Feb-22 12:28N 34°14' E 135°08'0 0.0
2017-Feb-22 11:31N 34°14' E 135°08'0 0.0
2017-Feb-22 10:28N 34°14' E 135°08'0 0.0
2017-Feb-22 09:31N 34°14' E 135°08'0 0.0
2017-Feb-22 08:34N 34°14' E 135°08'0 0.0
2017-Feb-22 07:34N 34°14' E 135°08'0 0.0
2017-Feb-22 06:33N 34°14' E 135°08'2 1.5
2017-Feb-22 05:33N 34°14' E 135°06'8 1.2
2017-Feb-21 23:16N 34°07' E 135°08'2 2.3
2017-Feb-21 22:32N 34°08' E 135°06'3 3.3
2017-Feb-21 21:33N 34°07' E 135°03'  
Track history (hours):
 
Tides and Currents Weather Stations Pressure Air Temp Water Temp Dewpoint Dewpoint Depression Visibility Wind Speed Wind Dir Waves Ship Positions

Taiki Maru

Last reported at 2017-Feb-28 18:30 UTC. Time now 2017-Mar-01 20:15 UTC.
Position N 34°60' E 139°31'.

Length 93 m; draft 7.2 m.

Type: Cargo ship. MMSI: 431300622.

Date/timePositionNaut miles runAvg speedWind from/ knotsBaromVisibWave heightAir tempDewpointWater temp
2017-Feb-28 18:30N 34°60' E 139°31'1314.2
2017-Feb-28 17:33N 35°08' E 139°44'1212.2
2017-Feb-28 16:34N 35°20' E 139°42'9 8.6
2017-Feb-28 15:31N 35°29' E 139°40'0 0.0
2017-Feb-28 14:31N 35°29' E 139°40'0 0.0
2017-Feb-28 13:31N 35°29' E 139°40'0 0.0
2017-Feb-28 12:31N 35°29' E 139°40'0 0.0
2017-Feb-28 11:31N 35°29' E 139°40'0 0.0
2017-Feb-28 10:31N 35°29' E 139°40'0 0.0
2017-Feb-28 09:31N 35°29' E 139°40'0 0.0
2017-Feb-28 08:31N 35°29' E 139°40'0 0.0
2017-Feb-28 07:31N 35°29' E 139°40'0 0.0
2017-Feb-28 06:25N 35°29' E 139°40'0 0.0
2017-Feb-28 05:33N 35°29' E 139°40'2 2.0
2017-Feb-28 04:33N 35°27' E 139°41'1 1.3
2017-Feb-28 03:32N 35°26' E 139°42'0 0.0
2017-Feb-28 02:32N 35°26' E 139°42'0 0.0
2017-Feb-28 01:29N 35°26' E 139°42'0 0.0
2017-Feb-28 00:29N 35°26' E 139°42'0 0.0
2017-Feb-27 23:26N 35°26' E 139°42'0 0.0
2017-Feb-27 22:32N 35°26' E 139°42'4 4.4
2017-Feb-27 21:33N 35°21' E 139°43'1111.4
2017-Feb-27 20:33N 35°10' E 139°46'1111.2
2017-Feb-27 19:33N 35°01' E 139°38'239 9.9
2017-Feb-26 19:32N 34°04' E 134°57'2713.5
2017-Feb-26 17:33N 34°30' E 135°02'1110.6
2017-Feb-26 16:33N 34°37' E 134°52'3 0.2
2017-Feb-25 21:23N 34°39' E 134°49'1314.8
2017-Feb-25 20:32N 34°36' E 135°04'1313.4
2017-Feb-25 19:33N 34°23' E 135°02'1312.8
2017-Feb-25 18:33N 34°10' E 134°59'  
2017-Feb-23 05:05N 34°04' E 135°02'612.1
2017-Feb-23 04:34N 34°11' E 135°04'4 4.2
2017-Feb-23 03:32N 34°15' E 135°05'0 0.0
2017-Feb-23 02:32N 34°15' E 135°05'1 0.5
2017-Feb-23 01:33N 34°14' E 135°06'2 1.4
2017-Feb-23 00:25N 34°14' E 135°08'0 0.0
2017-Feb-22 23:34N 34°14' E 135°08'0 0.0
2017-Feb-22 22:33N 34°14' E 135°08'0 0.0
2017-Feb-22 21:34N 34°14' E 135°08'0 0.0
2017-Feb-22 20:31N 34°14' E 135°08'0 0.0
2017-Feb-22 19:30N 34°14' E 135°08'0 0.0
2017-Feb-22 18:31N 34°14' E 135°08'0 0.0
2017-Feb-22 17:31N 34°14' E 135°08'0 0.1
2017-Feb-22 16:34N 34°14' E 135°08'0 0.0
2017-Feb-22 15:30N 34°14' E 135°08'0 0.0
2017-Feb-22 14:31N 34°14' E 135°08'0 0.0
2017-Feb-22 13:30N 34°14' E 135°08'0 0.0
2017-Feb-22 12:28N 34°14' E 135°08'0 0.0
2017-Feb-22 11:31N 34°14' E 135°08'0 0.0
2017-Feb-22 10:28N 34°14' E 135°08'0 0.0
2017-Feb-22 09:31N 34°14' E 135°08'0 0.0
2017-Feb-22 08:34N 34°14' E 135°08'0 0.0
2017-Feb-22 07:34N 34°14' E 135°08'0 0.0
2017-Feb-22 06:33N 34°14' E 135°08'2 1.5
2017-Feb-22 05:33N 34°14' E 135°06'8 1.2
2017-Feb-21 23:16N 34°07' E 135°08'2 2.3
2017-Feb-21 22:32N 34°08' E 135°06'3 3.3
2017-Feb-21 21:33N 34°07' E 135°03'  

Dump ship's entire track history